createdAt,value
2022-11-05T00:00:57.782Z,22.20
2022-11-05T00:01:57.849Z,22.50
2022-11-05T00:02:57.761Z,23.40
2022-11-05T00:04:55.923Z,22.90
2022-11-05T00:05:57.539Z,22.80
2022-11-05T00:06:55.896Z,23.20
2022-11-05T00:07:55.898Z,23.10
2022-11-05T00:08:55.861Z,23.00
2022-11-05T00:09:55.850Z,22.90
2022-11-05T00:10:55.839Z,23.70
2022-11-05T00:11:55.830Z,22.80
2022-11-05T00:12:55.861Z,25.10
2022-11-05T00:13:55.802Z,23.20
2022-11-05T00:14:55.783Z,24.10
2022-11-05T00:15:55.782Z,24.00
2022-11-05T00:16:55.763Z,24.20
2022-11-05T00:17:55.763Z,24.60
2022-11-05T00:18:55.738Z,22.60
2022-11-05T00:19:55.721Z,24.30
2022-11-05T00:20:55.712Z,23.20
2022-11-05T00:21:55.692Z,23.70
2022-11-05T00:22:55.681Z,25.60
2022-11-05T00:23:55.682Z,25.40
2022-11-05T00:24:55.652Z,24.20
2022-11-05T00:25:55.633Z,25.50
2022-11-05T00:26:55.630Z,25.30
2022-11-05T00:27:55.611Z,25.30
2022-11-05T00:28:55.620Z,25.00
2022-11-05T00:29:55.590Z,26.60
2022-11-05T00:30:55.580Z,27.50
2022-11-05T00:31:55.560Z,26.10
2022-11-05T00:32:55.569Z,25.60
2022-11-05T00:33:55.533Z,25.30
2022-11-05T00:34:55.532Z,24.40
2022-11-05T00:35:55.504Z,25.20
2022-11-05T00:36:55.505Z,24.40
2022-11-05T00:37:55.493Z,25.50
2022-11-05T00:38:55.473Z,25.60
2022-11-05T00:39:55.465Z,25.90
2022-11-05T00:40:55.443Z,25.90
2022-11-05T00:41:55.424Z,24.80
2022-11-05T00:42:55.445Z,26.80
2022-11-05T00:43:55.398Z,26.20
2022-11-05T00:44:55.394Z,26.80
2022-11-05T00:45:55.374Z,26.20
2022-11-05T00:46:59.764Z,27.50
2022-11-05T00:47:55.344Z,26.20
2022-11-05T00:48:55.355Z,26.50
2022-11-05T00:49:55.324Z,27.00
2022-11-05T00:50:55.314Z,26.70
2022-11-05T00:51:55.294Z,29.50
2022-11-05T00:52:55.305Z,29.70
2022-11-05T00:53:55.273Z,28.80
2022-11-05T00:54:55.255Z,27.80
2022-11-05T00:55:55.251Z,30.60
2022-11-05T00:56:56.080Z,30.20
2022-11-05T00:57:55.234Z,29.90
2022-11-05T00:58:55.212Z,30.10
2022-11-05T00:59:55.185Z,29.60
2022-11-05T01:00:55.175Z,29.80
2022-11-05T01:01:55.250Z,29.30
2022-11-05T01:02:55.220Z,30.60
2022-11-05T01:03:55.136Z,29.60
2022-11-05T01:04:55.129Z,30.90
2022-11-05T01:05:55.105Z,31.10
2022-11-05T01:06:55.109Z,29.10
2022-11-05T01:07:55.097Z,29.60
2022-11-05T01:08:55.076Z,29.70
2022-11-05T01:09:55.055Z,30.40
2022-11-05T01:10:55.054Z,31.20
2022-11-05T01:11:55.026Z,31.30
2022-11-05T01:12:55.037Z,31.40
2022-11-05T01:13:54.996Z,30.00
2022-11-05T01:14:54.996Z,30.40
2022-11-05T01:15:54.979Z,29.80
2022-11-05T01:16:54.967Z,30.50
2022-11-05T01:17:54.966Z,30.10
2022-11-05T01:18:54.936Z,32.10
2022-11-05T01:19:54.916Z,31.00
2022-11-05T01:20:54.917Z,31.60
2022-11-05T01:21:54.899Z,31.90
2022-11-05T01:22:54.906Z,34.00
2022-11-05T01:23:54.866Z,32.90
2022-11-05T01:24:54.869Z,32.60
2022-11-05T01:25:54.847Z,33.20
2022-11-05T01:26:54.838Z,33.00
2022-11-05T01:27:54.827Z,33.30
2022-11-05T01:28:54.875Z,34.30
2022-11-05T01:29:54.798Z,34.60
2022-11-05T01:30:54.777Z,33.60
2022-11-05T01:31:54.786Z,34.30
2022-11-05T01:32:54.769Z,34.40
2022-11-05T01:33:54.737Z,33.60
2022-11-05T01:34:54.729Z,33.20
2022-11-05T01:35:54.707Z,33.90
2022-11-05T01:36:54.697Z,34.00
2022-11-05T01:37:54.708Z,34.60
2022-11-05T01:38:54.678Z,33.00
2022-11-05T01:39:54.658Z,33.20
2022-11-05T01:40:54.649Z,32.90
2022-11-05T01:41:54.628Z,33.20
2022-11-05T01:42:54.636Z,33.10
2022-11-05T01:43:54.639Z,33.30
2022-11-05T01:44:54.598Z,33.70
2022-11-05T01:45:54.578Z,31.70
2022-11-05T01:46:54.580Z,32.70
2022-11-05T01:47:54.568Z,33.50
2022-11-05T01:49:00.047Z,33.20
2022-11-05T01:49:55.527Z,33.20
2022-11-05T01:50:54.521Z,33.10
2022-11-05T01:51:54.499Z,32.30
2022-11-05T01:52:54.508Z,31.30
2022-11-05T01:53:54.478Z,32.60
2022-11-05T01:54:54.469Z,32.60
2022-11-05T01:55:54.449Z,32.90
2022-11-05T01:56:54.439Z,31.90
2022-11-05T01:57:54.438Z,32.80
2022-11-05T01:58:54.417Z,33.40
2022-11-05T01:59:54.399Z,33.20
2022-11-05T02:00:54.397Z,34.50
2022-11-05T02:01:54.476Z,35.60
2022-11-05T02:02:54.493Z,36.20
2022-11-05T02:03:54.340Z,35.00
2022-11-05T02:04:54.348Z,35.20
2022-11-05T02:05:54.325Z,36.90
2022-11-05T02:06:54.309Z,34.00
2022-11-05T02:07:54.311Z,34.80
2022-11-05T02:08:54.279Z,38.60
2022-11-05T02:09:54.268Z,39.70
2022-11-05T02:10:54.261Z,43.10
2022-11-05T02:11:54.241Z,45.00
2022-11-05T02:12:54.245Z,44.30
2022-11-05T02:13:54.210Z,45.00
2022-11-05T02:14:54.200Z,43.50
2022-11-05T02:15:54.182Z,45.50
2022-11-05T02:16:54.178Z,48.80
2022-11-05T02:17:54.172Z,43.00
2022-11-05T02:18:54.151Z,43.30
2022-11-05T02:19:54.131Z,41.20
2022-11-05T02:20:54.133Z,50.00
2022-11-05T02:21:54.100Z,49.20
2022-11-05T02:22:54.171Z,52.40
2022-11-05T02:23:54.088Z,61.50
2022-11-05T02:24:54.071Z,60.10
2022-11-05T02:25:54.063Z,59.50
2022-11-05T02:26:54.043Z,65.20
2022-11-05T02:27:54.043Z,73.10
2022-11-05T02:28:54.023Z,74.10
2022-11-05T02:29:54.003Z,68.10
2022-11-05T02:30:53.994Z,76.70
2022-11-05T02:31:53.972Z,70.70
2022-11-05T02:32:53.997Z,72.80
2022-11-05T02:33:53.942Z,70.30
2022-11-05T02:34:53.932Z,69.70
2022-11-05T02:35:53.922Z,68.30
2022-11-05T02:36:53.913Z,66.20
2022-11-05T02:37:53.912Z,63.70
2022-11-05T02:38:53.883Z,48.70
2022-11-05T02:39:53.863Z,52.90
2022-11-05T02:40:53.861Z,49.80
2022-11-05T02:41:53.842Z,44.30
2022-11-05T02:42:53.854Z,43.60
2022-11-05T02:43:53.813Z,42.70
2022-11-05T02:44:53.810Z,38.30
2022-11-05T02:45:53.792Z,36.90
2022-11-05T02:46:53.783Z,35.60
2022-11-05T02:47:53.782Z,30.00
2022-11-05T02:48:53.755Z,25.60
2022-11-05T02:49:53.732Z,25.70
2022-11-05T02:50:53.726Z,23.90
2022-11-05T02:51:53.713Z,25.50
2022-11-05T02:52:53.713Z,25.30
2022-11-05T02:53:53.693Z,23.80
2022-11-05T02:54:53.675Z,21.80
2022-11-05T02:55:53.654Z,20.00
2022-11-05T02:56:53.651Z,20.20
2022-11-05T02:57:53.721Z,20.40
2022-11-05T02:58:53.624Z,19.80
2022-11-05T02:59:53.604Z,18.10
2022-11-05T03:00:53.597Z,18.10
2022-11-05T03:01:53.692Z,18.00
2022-11-05T03:02:53.646Z,17.50
2022-11-05T03:03:53.554Z,16.00
2022-11-05T03:04:53.545Z,17.00
2022-11-05T03:05:53.525Z,16.90
2022-11-05T03:06:53.514Z,16.90
2022-11-05T03:07:53.508Z,17.50
2022-11-05T03:08:53.484Z,16.80
2022-11-05T03:09:53.486Z,16.50
2022-11-05T03:10:53.464Z,16.50
2022-11-05T03:11:53.470Z,16.20
2022-11-05T03:12:53.435Z,16.30
2022-11-05T03:13:53.415Z,16.60
2022-11-05T03:14:53.415Z,16.40
2022-11-05T03:15:53.404Z,16.10
2022-11-05T03:16:53.406Z,16.90
2022-11-05T03:17:53.385Z,16.70
2022-11-05T03:18:53.355Z,17.20
2022-11-05T03:19:53.336Z,16.80
2022-11-05T03:20:53.335Z,17.40
2022-11-05T03:21:53.314Z,17.20
2022-11-05T03:22:53.326Z,17.20
2022-11-05T03:23:53.287Z,17.00
2022-11-05T03:24:53.277Z,17.40
2022-11-05T03:25:53.258Z,16.90
2022-11-05T03:26:53.248Z,17.40
2022-11-05T03:27:53.247Z,17.60
2022-11-05T03:28:53.225Z,18.60
2022-11-05T03:29:53.210Z,17.80
2022-11-05T03:30:53.198Z,18.10
2022-11-05T03:31:53.176Z,18.20
2022-11-05T03:32:53.187Z,17.70
2022-11-05T03:33:53.156Z,18.90
2022-11-05T03:34:53.249Z,18.30
2022-11-05T03:35:53.128Z,18.50
2022-11-05T03:36:53.129Z,17.70
2022-11-05T03:37:53.129Z,17.90
2022-11-05T03:38:53.088Z,17.90
2022-11-05T03:39:53.077Z,17.70
2022-11-05T03:40:53.068Z,18.60
2022-11-05T03:41:53.074Z,19.60
2022-11-05T03:42:53.036Z,19.30
2022-11-05T03:43:53.018Z,18.80
2022-11-05T03:44:53.010Z,19.80
2022-11-05T03:45:53.000Z,18.90
2022-11-05T03:46:53.007Z,18.80
2022-11-05T03:47:52.970Z,18.30
2022-11-05T03:48:53.067Z,20.10
2022-11-05T03:49:52.937Z,19.90
2022-11-05T03:50:52.928Z,20.40
2022-11-05T03:51:52.939Z,20.70
2022-11-05T03:52:52.908Z,20.00
2022-11-05T03:53:52.888Z,21.10
2022-11-05T03:54:52.878Z,20.20
2022-11-05T03:55:52.865Z,21.40
2022-11-05T03:56:52.873Z,20.30
2022-11-05T03:57:52.843Z,21.20
2022-11-05T03:58:58.474Z,20.60
2022-11-05T03:59:53.811Z,20.50
2022-11-05T04:00:52.798Z,21.80
2022-11-05T04:01:52.945Z,20.30
2022-11-05T04:02:52.929Z,20.00
2022-11-05T04:03:52.758Z,19.70
2022-11-05T04:04:52.757Z,19.80
2022-11-05T04:05:52.737Z,19.50
2022-11-05T04:06:52.738Z,19.30
2022-11-05T04:07:52.705Z,19.30
2022-11-05T04:08:52.696Z,19.20
2022-11-05T04:09:52.681Z,18.90
2022-11-05T04:10:52.669Z,19.70
2022-11-05T04:11:52.668Z,19.60
2022-11-05T04:12:52.639Z,20.60
2022-11-05T04:13:52.629Z,19.20
2022-11-05T04:14:52.620Z,20.20
2022-11-05T04:15:52.602Z,19.20
2022-11-05T04:16:52.609Z,19.70
2022-11-05T04:17:52.588Z,18.80
2022-11-05T04:18:52.560Z,20.10
2022-11-05T04:19:52.549Z,19.50
2022-11-05T04:20:52.539Z,20.00
2022-11-05T04:21:52.540Z,20.40
2022-11-05T04:22:52.510Z,19.40
2022-11-05T04:23:52.489Z,19.90
2022-11-05T04:24:52.480Z,20.40
2022-11-05T04:25:52.469Z,20.80
2022-11-05T04:26:52.473Z,20.20
2022-11-05T04:27:52.440Z,21.10
2022-11-05T04:28:52.431Z,21.50
2022-11-05T04:29:52.411Z,21.50
2022-11-05T04:30:52.400Z,22.20
2022-11-05T04:31:52.411Z,22.60
2022-11-05T04:32:52.371Z,23.00
2022-11-05T04:33:52.370Z,22.80
2022-11-05T04:34:52.350Z,23.80
2022-11-05T04:35:52.339Z,24.10
2022-11-05T04:36:52.338Z,24.10
2022-11-05T04:37:52.311Z,24.30
2022-11-05T04:38:52.291Z,25.10
2022-11-05T04:39:52.291Z,23.80
2022-11-05T04:40:52.275Z,25.90
2022-11-05T04:41:52.271Z,26.00
2022-11-05T04:42:52.243Z,27.80
2022-11-05T04:43:52.231Z,26.60
2022-11-05T04:44:52.213Z,27.20
2022-11-05T04:45:52.201Z,27.60
2022-11-05T04:46:52.205Z,28.50
2022-11-05T04:47:52.191Z,28.60
2022-11-05T04:48:52.161Z,27.90
2022-11-05T04:49:52.158Z,29.00
2022-11-05T04:50:52.141Z,29.00
2022-11-05T04:51:52.141Z,29.40
2022-11-05T04:52:52.111Z,29.70
2022-11-05T04:53:52.102Z,30.00
2022-11-05T04:54:52.083Z,29.70
2022-11-05T04:55:52.073Z,31.40
2022-11-05T04:56:52.091Z,31.20
2022-11-05T04:57:52.050Z,32.00
2022-11-05T04:58:52.033Z,32.80
2022-11-05T04:59:52.032Z,32.10
2022-11-05T05:00:52.105Z,32.70
2022-11-05T05:01:52.080Z,34.20
2022-11-05T05:02:51.980Z,34.10
2022-11-05T05:03:51.981Z,34.60
2022-11-05T05:04:51.952Z,35.60
2022-11-05T05:05:53.798Z,35.30
2022-11-05T05:06:51.942Z,36.00
2022-11-05T05:07:51.932Z,35.90
2022-11-05T05:08:51.902Z,36.30
2022-11-05T05:09:51.891Z,37.50
2022-11-05T05:10:51.875Z,37.10
2022-11-05T05:11:51.874Z,38.20
2022-11-05T05:12:51.854Z,39.10
2022-11-05T05:13:51.833Z,38.60
2022-11-05T05:14:51.815Z,38.70
2022-11-05T05:15:51.813Z,38.70
2022-11-05T05:16:51.804Z,39.30
2022-11-05T05:17:51.785Z,41.50
2022-11-05T05:18:51.767Z,40.30
2022-11-05T05:19:51.763Z,40.90
2022-11-05T05:20:51.756Z,41.50
2022-11-05T05:21:51.735Z,40.80
2022-11-05T05:22:51.716Z,41.30
2022-11-05T05:23:51.812Z,40.40
2022-11-05T05:24:53.048Z,41.10
2022-11-05T05:25:51.738Z,41.70
2022-11-05T05:26:51.664Z,42.40
2022-11-05T05:27:51.656Z,40.80
2022-11-05T05:28:51.634Z,43.00
2022-11-05T05:29:51.624Z,42.40
2022-11-05T05:30:56.171Z,41.70
2022-11-05T05:31:52.596Z,44.90
2022-11-05T05:32:51.583Z,43.70
2022-11-05T05:33:51.574Z,44.10
2022-11-05T05:34:51.555Z,44.00
2022-11-05T05:35:51.566Z,45.00
2022-11-05T05:36:51.526Z,46.30
2022-11-05T05:37:51.516Z,45.40
2022-11-05T05:38:51.515Z,43.50
2022-11-05T05:39:51.497Z,45.80
2022-11-05T05:40:51.500Z,44.20
2022-11-05T05:41:51.466Z,46.10
2022-11-05T05:42:51.453Z,47.80
2022-11-05T05:43:51.555Z,43.50
2022-11-05T05:44:51.426Z,45.80
2022-11-05T05:45:51.436Z,45.80
2022-11-05T05:46:51.415Z,44.90
2022-11-05T05:47:51.395Z,49.70
2022-11-05T05:48:51.375Z,47.40
2022-11-05T05:49:51.376Z,46.00
2022-11-05T05:50:51.346Z,47.10
2022-11-05T05:51:51.340Z,45.20
2022-11-05T05:52:51.326Z,48.10
2022-11-05T05:53:51.306Z,45.50
2022-11-05T05:54:51.307Z,45.70
2022-11-05T05:55:51.297Z,46.00
2022-11-05T05:56:51.266Z,46.20
2022-11-05T05:57:51.255Z,47.10
2022-11-05T05:58:51.237Z,47.50
2022-11-05T05:59:51.226Z,46.50
2022-11-05T06:00:51.226Z,46.50
2022-11-05T06:01:51.283Z,48.10
2022-11-05T06:02:51.220Z,48.00
2022-11-05T06:03:51.168Z,46.10
2022-11-05T06:04:51.168Z,47.50
2022-11-05T06:05:51.167Z,47.20
2022-11-05T06:06:51.136Z,46.90
2022-11-05T06:07:51.125Z,48.10
2022-11-05T06:08:51.107Z,46.10
2022-11-05T06:09:51.098Z,46.30
2022-11-05T06:10:51.137Z,46.70
2022-11-05T06:11:51.077Z,48.20
2022-11-05T06:12:51.048Z,47.40
2022-11-05T06:13:51.047Z,44.00
2022-11-05T06:14:51.027Z,47.20
2022-11-05T06:15:51.043Z,46.50
2022-11-05T06:16:50.998Z,46.50
2022-11-05T06:17:50.988Z,47.10
2022-11-05T06:18:50.967Z,46.80
2022-11-05T06:19:50.966Z,45.60
2022-11-05T06:20:50.968Z,44.70
2022-11-05T06:21:50.940Z,45.70
2022-11-05T06:22:50.927Z,44.30
2022-11-05T06:23:50.909Z,46.60
2022-11-05T06:24:50.908Z,48.60
2022-11-05T06:25:50.889Z,45.40
2022-11-05T06:26:50.869Z,44.90
2022-11-05T06:27:50.863Z,50.10
2022-11-05T06:28:50.838Z,52.10
2022-11-05T06:29:50.849Z,48.10
2022-11-05T06:30:50.819Z,48.70
2022-11-05T06:31:50.808Z,44.20
2022-11-05T06:32:50.788Z,47.10
2022-11-05T06:33:50.781Z,48.80
2022-11-05T06:34:50.777Z,47.00
2022-11-05T06:35:50.753Z,46.70
2022-11-05T06:36:50.737Z,44.90
2022-11-05T06:37:50.728Z,45.60
2022-11-05T06:38:50.708Z,75.20
2022-11-05T06:39:50.726Z,48.10
2022-11-05T06:40:50.687Z,46.50
2022-11-05T06:42:16.587Z,45.70
2022-11-05T06:42:51.658Z,45.50
2022-11-05T06:43:50.650Z,46.20
2022-11-05T06:44:50.645Z,58.50
2022-11-05T06:45:50.619Z,44.50
2022-11-05T06:46:50.597Z,45.00
2022-11-05T06:47:50.596Z,42.60
2022-11-05T06:48:50.576Z,43.00
2022-11-05T06:49:50.580Z,43.20
2022-11-05T06:50:50.552Z,41.50
2022-11-05T06:51:50.539Z,42.70
2022-11-05T06:52:50.519Z,43.60
2022-11-05T06:53:50.516Z,41.90
2022-11-05T06:54:50.499Z,41.90
2022-11-05T06:55:50.507Z,41.30
2022-11-05T06:56:50.468Z,42.40
2022-11-05T06:57:50.459Z,43.00
2022-11-05T06:58:50.449Z,41.50
2022-11-05T06:59:50.429Z,41.50
2022-11-05T07:00:50.496Z,40.60
2022-11-05T07:01:50.474Z,39.80
2022-11-05T07:02:50.390Z,37.90
2022-11-05T07:03:50.380Z,38.80
2022-11-05T07:04:50.362Z,37.70
2022-11-05T07:05:50.412Z,39.10
2022-11-05T07:06:50.339Z,38.30
2022-11-05T07:07:50.327Z,37.70
2022-11-05T07:08:50.316Z,37.80
2022-11-05T07:09:50.302Z,37.10
2022-11-05T07:10:50.301Z,36.50
2022-11-05T07:11:50.326Z,36.20
2022-11-05T07:12:50.360Z,34.50
2022-11-05T07:13:50.250Z,34.70
2022-11-05T07:14:50.230Z,35.20
2022-11-05T07:15:50.240Z,34.50
2022-11-05T07:16:50.207Z,33.60
2022-11-05T07:17:50.211Z,34.30
2022-11-05T07:18:50.180Z,33.40
2022-11-05T07:19:50.173Z,33.50
2022-11-05T07:20:50.253Z,34.10
2022-11-05T07:21:50.200Z,32.30
2022-11-05T07:22:50.122Z,32.70
2022-11-05T07:23:50.120Z,32.60
2022-11-05T07:24:50.106Z,30.90
2022-11-05T07:25:50.103Z,31.90
2022-11-05T07:26:50.095Z,30.80
2022-11-05T07:27:50.070Z,32.10
2022-11-05T07:28:50.055Z,31.00
2022-11-05T07:29:50.044Z,32.60
2022-11-05T07:30:50.045Z,32.10
2022-11-05T07:31:50.014Z,32.40
2022-11-05T07:32:49.992Z,31.30
2022-11-05T07:33:49.983Z,30.20
2022-11-05T07:34:49.971Z,30.20
2022-11-05T07:35:50.002Z,39.70
2022-11-05T07:36:49.945Z,28.70
2022-11-05T07:37:49.942Z,33.10
2022-11-05T07:38:49.918Z,30.80
2022-11-05T07:39:49.903Z,30.90
2022-11-05T07:40:49.902Z,29.70
2022-11-05T07:41:49.880Z,28.40
2022-11-05T07:42:49.863Z,29.50
2022-11-05T07:43:49.851Z,27.90
2022-11-05T07:44:49.833Z,28.80
2022-11-05T07:45:49.847Z,33.20
2022-11-05T07:46:49.814Z,30.30
2022-11-05T07:47:49.802Z,28.00
2022-11-05T07:48:49.783Z,29.00
2022-11-05T07:49:49.773Z,27.60
2022-11-05T07:50:49.763Z,27.20
2022-11-05T07:51:49.757Z,26.70
2022-11-05T07:52:49.733Z,29.00
2022-11-05T07:53:49.723Z,26.50
2022-11-05T07:54:49.704Z,26.50
2022-11-05T07:55:49.712Z,25.70
2022-11-05T07:56:49.681Z,26.50
2022-11-05T07:57:49.673Z,25.90
2022-11-05T07:58:49.662Z,26.10
2022-11-05T07:59:49.646Z,25.10
2022-11-05T08:00:49.735Z,25.30
2022-11-05T08:01:49.741Z,24.70
2022-11-05T08:02:49.743Z,23.90
2022-11-05T08:03:49.613Z,24.50
2022-11-05T08:04:49.585Z,23.80
2022-11-05T08:05:49.604Z,23.80
2022-11-05T08:06:49.562Z,24.10
2022-11-05T08:07:49.535Z,23.20
2022-11-05T08:08:49.514Z,23.20
2022-11-05T08:09:49.515Z,22.60
2022-11-05T08:10:49.527Z,23.80
2022-11-05T08:11:52.851Z,23.50
2022-11-05T08:12:49.466Z,22.90
2022-11-05T08:13:49.495Z,23.10
2022-11-05T08:14:49.445Z,23.30
2022-11-05T08:15:49.447Z,23.70
2022-11-05T08:16:49.414Z,22.60
2022-11-05T08:17:49.406Z,23.10
2022-11-05T08:18:49.386Z,22.40
2022-11-05T08:19:49.376Z,22.70
2022-11-05T08:20:49.375Z,22.70
2022-11-05T08:21:49.383Z,22.90
2022-11-05T08:22:49.335Z,22.20
2022-11-05T08:23:49.334Z,22.90
2022-11-05T08:24:49.305Z,21.80
2022-11-05T08:25:49.325Z,20.90
2022-11-05T08:26:49.285Z,20.80
2022-11-05T08:27:49.276Z,19.90
2022-11-05T08:28:49.266Z,20.50
2022-11-05T08:29:49.247Z,20.00
2022-11-05T08:30:49.248Z,20.80
2022-11-05T08:31:49.217Z,21.00
2022-11-05T08:32:49.206Z,20.60
2022-11-05T08:33:49.196Z,20.90
2022-11-05T08:34:49.178Z,20.20
2022-11-05T08:35:49.179Z,20.80
2022-11-05T08:36:49.147Z,20.60
2022-11-05T08:37:49.146Z,19.60
2022-11-05T08:38:49.125Z,20.10
2022-11-05T08:39:49.128Z,18.70
2022-11-05T08:40:49.149Z,19.80
2022-11-05T08:41:49.089Z,20.50
2022-11-05T08:42:49.078Z,18.20
2022-11-05T08:43:49.086Z,17.90
2022-11-05T08:44:49.048Z,19.30
2022-11-05T08:45:49.047Z,19.20
2022-11-05T08:46:49.049Z,18.60
2022-11-05T08:47:49.008Z,17.70
2022-11-05T08:48:48.997Z,17.40
2022-11-05T08:49:48.997Z,16.70
2022-11-05T08:50:48.989Z,17.70
2022-11-05T08:51:48.947Z,16.40
2022-11-05T08:52:48.960Z,17.00
2022-11-05T08:53:48.959Z,16.70
2022-11-05T08:54:48.919Z,16.60
2022-11-05T08:55:48.913Z,16.90
2022-11-05T08:56:48.889Z,16.00
2022-11-05T08:57:48.868Z,14.90
2022-11-05T08:58:48.889Z,15.40
2022-11-05T08:59:48.847Z,15.00
2022-11-05T09:00:48.896Z,14.50
2022-11-05T09:01:48.946Z,15.60
2022-11-05T09:02:48.839Z,15.70
2022-11-05T09:03:48.788Z,14.90
2022-11-05T09:04:48.792Z,14.60
2022-11-05T09:05:48.779Z,15.50
2022-11-05T09:06:48.781Z,14.50
2022-11-05T09:07:48.741Z,15.50
2022-11-05T09:08:48.731Z,14.90
2022-11-05T09:09:48.709Z,14.50
2022-11-05T09:10:48.727Z,15.00
2022-11-05T09:12:11.058Z,14.40
2022-11-05T09:12:49.686Z,14.80
2022-11-05T09:13:48.657Z,13.90
2022-11-05T09:14:48.650Z,14.10
2022-11-05T09:15:48.689Z,14.50
2022-11-05T09:16:48.649Z,13.90
2022-11-05T09:17:48.599Z,13.10
2022-11-05T09:18:48.598Z,14.10
2022-11-05T09:19:48.602Z,13.50
2022-11-05T09:20:48.580Z,13.80
2022-11-05T09:21:48.550Z,13.40
2022-11-05T09:22:48.539Z,13.60
2022-11-05T09:23:48.529Z,13.50
2022-11-05T09:24:48.516Z,13.20
2022-11-05T09:25:48.552Z,12.90
2022-11-05T09:26:48.490Z,12.60
2022-11-05T09:27:48.512Z,13.10
2022-11-05T09:28:48.467Z,12.70
2022-11-05T09:29:48.451Z,12.30
2022-11-05T09:30:48.466Z,13.60
2022-11-05T09:31:48.446Z,12.80
2022-11-05T09:32:48.411Z,12.40
2022-11-05T09:33:48.394Z,12.50
2022-11-05T09:34:48.403Z,12.80
2022-11-05T09:35:48.516Z,12.80
2022-11-05T09:36:48.365Z,11.90
2022-11-05T09:37:48.340Z,12.00
2022-11-05T09:38:48.412Z,11.00
2022-11-05T09:39:48.311Z,10.80
2022-11-05T09:40:48.324Z,11.30
2022-11-05T09:41:48.972Z,11.10
2022-11-05T09:42:48.282Z,11.80
2022-11-05T09:43:48.276Z,11.30
2022-11-05T09:44:48.257Z,10.50
2022-11-05T09:45:48.253Z,10.90
2022-11-05T09:46:48.234Z,11.00
2022-11-05T09:47:48.229Z,11.30
2022-11-05T09:48:48.222Z,11.70
2022-11-05T09:49:48.185Z,10.90
2022-11-05T09:50:48.225Z,10.90
2022-11-05T09:51:48.153Z,10.30
2022-11-05T09:52:48.154Z,9.80
2022-11-05T09:53:48.132Z,10.40
2022-11-05T09:54:48.145Z,9.80
2022-11-05T09:55:48.103Z,9.30
2022-11-05T09:56:48.182Z,9.40
2022-11-05T09:57:48.084Z,9.20
2022-11-05T09:58:48.072Z,9.40
2022-11-05T09:59:48.054Z,9.10
2022-11-05T10:00:48.112Z,9.10
2022-11-05T10:01:48.147Z,9.80
2022-11-05T10:02:48.043Z,8.70
2022-11-05T10:03:48.007Z,8.60
2022-11-05T10:04:47.995Z,8.30
2022-11-05T10:05:48.060Z,8.40
2022-11-05T10:06:47.979Z,8.00
2022-11-05T10:07:47.986Z,8.10
2022-11-05T10:08:47.935Z,8.70
2022-11-05T10:09:47.934Z,8.40
2022-11-05T10:10:47.935Z,7.90
2022-11-05T10:11:47.894Z,8.40
2022-11-05T10:12:47.884Z,8.10
2022-11-05T10:13:47.884Z,8.00
2022-11-05T10:14:47.916Z,7.80
2022-11-05T10:15:47.856Z,7.30
2022-11-05T10:16:47.853Z,7.40
2022-11-05T10:17:47.817Z,7.00
2022-11-05T10:18:47.804Z,7.20
2022-11-05T10:19:47.787Z,7.20
2022-11-05T10:20:47.846Z,7.30
2022-11-05T10:22:49.807Z,7.50
2022-11-05T10:23:47.728Z,7.30
2022-11-05T10:24:47.739Z,7.70
2022-11-05T10:25:47.725Z,7.70
2022-11-05T10:26:47.721Z,7.00
2022-11-05T10:27:47.678Z,7.70
2022-11-05T10:28:47.668Z,7.10
2022-11-05T10:29:47.648Z,7.00
2022-11-05T10:30:47.676Z,7.90
2022-11-05T10:31:47.619Z,7.10
2022-11-05T10:32:47.617Z,7.50
2022-11-05T10:33:47.597Z,7.50
2022-11-05T10:34:47.587Z,7.00
2022-11-05T10:35:47.589Z,7.30
2022-11-05T10:36:47.562Z,7.60
2022-11-05T10:37:47.549Z,7.40
2022-11-05T10:38:47.536Z,7.60
2022-11-05T10:39:47.521Z,6.90
2022-11-05T10:40:47.529Z,6.60
2022-11-05T10:41:47.489Z,7.00
2022-11-05T10:42:47.481Z,7.20
2022-11-05T10:43:47.460Z,6.90
2022-11-05T10:44:47.471Z,7.20
2022-11-05T10:45:47.439Z,7.20
2022-11-05T10:46:47.430Z,7.20
2022-11-05T10:47:47.410Z,7.20
2022-11-05T10:48:47.401Z,7.10
2022-11-05T10:49:47.401Z,7.10
2022-11-05T10:50:47.370Z,7.10
2022-11-05T10:51:47.359Z,6.60
2022-11-05T10:52:47.362Z,7.20
2022-11-05T10:53:47.332Z,7.10
2022-11-05T10:54:47.333Z,6.70
2022-11-05T10:55:47.315Z,6.60
2022-11-05T10:56:47.293Z,6.30
2022-11-05T10:57:47.273Z,6.80
2022-11-05T10:58:47.264Z,6.20
2022-11-05T10:59:47.263Z,6.30
2022-11-05T11:00:47.293Z,7.40
2022-11-05T11:01:47.323Z,7.00
2022-11-05T11:02:47.224Z,6.60
2022-11-05T11:03:47.192Z,6.70
2022-11-05T11:04:47.205Z,6.20
2022-11-05T11:05:47.174Z,6.70
2022-11-05T11:06:47.165Z,6.70
2022-11-05T11:07:47.144Z,6.60
2022-11-05T11:08:47.142Z,6.80
2022-11-05T11:09:47.134Z,6.80
2022-11-05T11:10:47.113Z,7.20
2022-11-05T11:11:47.093Z,7.20
2022-11-05T11:12:47.086Z,6.60
2022-11-05T11:13:47.055Z,6.90
2022-11-05T11:14:47.074Z,7.00
2022-11-05T11:15:47.038Z,6.80
2022-11-05T11:16:47.027Z,6.40
2022-11-05T11:17:47.015Z,6.90
2022-11-05T11:18:47.004Z,6.40
2022-11-05T11:19:46.997Z,6.80
2022-11-05T11:20:46.976Z,8.10
2022-11-05T11:21:46.968Z,10.50
2022-11-05T11:22:46.946Z,79.60
2022-11-05T11:23:46.927Z,22.50
2022-11-05T11:24:46.939Z,6.60
2022-11-05T11:25:46.907Z,5.80
2022-11-05T11:26:46.898Z,5.70
2022-11-05T11:27:46.878Z,13.10
2022-11-05T11:28:46.868Z,6.60
2022-11-05T11:29:49.602Z,7.10
2022-11-05T11:30:46.843Z,7.10
2022-11-05T11:31:46.832Z,4.80
2022-11-05T11:32:46.819Z,6.00
2022-11-05T11:33:46.801Z,5.50
2022-11-05T11:34:46.808Z,5.80
2022-11-05T11:35:46.769Z,4.70
2022-11-05T11:36:46.760Z,4.90
2022-11-05T11:37:46.765Z,4.90
2022-11-05T11:38:46.732Z,4.70
2022-11-05T11:39:46.731Z,4.70
2022-11-05T11:40:46.721Z,5.00
2022-11-05T11:41:47.171Z,4.60
2022-11-05T11:42:46.682Z,4.70
2022-11-05T11:43:46.661Z,4.90
2022-11-05T11:44:46.671Z,5.00
2022-11-05T11:45:46.641Z,4.40
2022-11-05T11:46:46.631Z,4.70
2022-11-05T11:47:46.611Z,5.20
2022-11-05T11:48:46.603Z,4.90
2022-11-05T11:49:46.605Z,4.80
2022-11-05T11:50:46.582Z,4.40
2022-11-05T11:51:49.979Z,4.30
2022-11-05T11:52:46.654Z,4.60
2022-11-05T11:53:46.543Z,4.40
2022-11-05T11:54:46.548Z,4.10
2022-11-05T11:55:46.519Z,4.10
2022-11-05T11:56:46.493Z,4.40
2022-11-05T11:57:46.485Z,4.50
2022-11-05T11:58:46.472Z,4.40
2022-11-05T12:00:07.753Z,4.10
2022-11-05T12:00:47.445Z,4.40
2022-11-05T12:01:46.476Z,4.10
2022-11-05T12:02:46.445Z,4.60
2022-11-05T12:03:46.395Z,4.30
2022-11-05T12:04:46.424Z,4.60
2022-11-05T12:05:46.386Z,4.30
2022-11-05T12:07:55.077Z,4.50
2022-11-05T12:08:48.455Z,4.40
2022-11-05T12:09:47.320Z,4.50
2022-11-05T12:10:46.322Z,4.80
2022-11-05T12:11:46.294Z,4.70
2022-11-05T12:12:46.285Z,5.00
2022-11-05T12:13:46.266Z,4.90
2022-11-05T12:14:46.761Z,5.00
2022-11-05T12:15:46.255Z,5.60
2022-11-05T12:16:46.233Z,4.90
2022-11-05T12:17:46.226Z,4.50
2022-11-05T12:18:46.206Z,4.50
2022-11-05T12:19:46.184Z,4.70
2022-11-05T12:20:48.252Z,5.20
2022-11-05T12:21:53.099Z,4.80
2022-11-05T12:22:47.148Z,4.80
2022-11-05T12:23:46.136Z,4.90
2022-11-05T12:24:46.147Z,4.60
2022-11-05T12:25:46.119Z,4.30
2022-11-05T12:26:46.098Z,4.60
2022-11-05T12:27:46.085Z,4.80
2022-11-05T12:29:12.309Z,4.90
2022-11-05T12:29:47.066Z,5.20
2022-11-05T12:30:46.039Z,5.10
2022-11-05T12:31:46.027Z,5.20
2022-11-05T12:32:46.048Z,5.50
2022-11-05T12:33:45.998Z,5.30
2022-11-05T12:34:46.008Z,5.00
2022-11-05T12:35:48.216Z,5.10
2022-11-05T12:36:46.959Z,4.60
2022-11-05T12:37:45.948Z,5.40
2022-11-05T12:38:45.938Z,4.70
2022-11-05T12:39:45.951Z,5.00
2022-11-05T12:40:45.910Z,5.30
2022-11-05T12:41:45.900Z,5.10
2022-11-05T12:42:45.880Z,5.00
2022-11-05T12:43:45.861Z,5.20
2022-11-05T12:44:45.871Z,4.80
2022-11-05T12:45:45.850Z,4.60
2022-11-05T12:46:45.839Z,4.40
2022-11-05T12:47:45.811Z,4.50
2022-11-05T12:48:45.800Z,4.20
2022-11-05T12:49:45.800Z,4.30
2022-11-05T12:50:45.774Z,3.90
2022-11-05T12:51:45.751Z,4.20
2022-11-05T12:52:45.749Z,4.60
2022-11-05T12:53:45.733Z,4.00
2022-11-05T12:54:45.731Z,4.30
2022-11-05T12:55:48.760Z,15.00
2022-11-05T12:56:45.690Z,4.70
2022-11-05T12:57:45.681Z,12.00
2022-11-05T12:58:45.661Z,7.80
2022-11-05T12:59:45.673Z,5.30
2022-11-05T13:00:45.633Z,5.40
2022-11-05T13:01:45.749Z,4.70